Time;durP1;ratioP1;P1;durP2;ratioP2;P2;SDS_P1;SDS_P2;PMS_P1;PMS_P2;Temp;Humidity;BMP_temperature;BMP_pressure;BME280_temperature;BME280_humidity;BME280_pressure;Samples;Min_cycle;Max_cycle;Signal;HPM_P1;HPM_P2
2024/03/29 00:00:46;;;;;;;6.32;1.50;;;8.60;99.90;;;;;;5019802;28;20038;-87
2024/03/29 00:03:12;;;;;;;6.25;1.48;;;8.60;99.90;;;;;;4986770;28;20502;-88
2024/03/29 00:05:38;;;;;;;5.20;1.38;;;8.60;99.90;;;;;;4979163;28;20121;-87
2024/03/29 00:08:04;;;;;;;4.57;1.20;;;8.70;99.90;;;;;;5014149;28;20064;-86
2024/03/29 00:10:30;;;;;;;5.82;1.10;;;8.60;99.90;;;;;;4969321;28;20041;-85
2024/03/29 00:12:59;;;;;;;5.57;1.15;;;8.60;99.90;;;;;;5001337;28;20042;-85
2024/03/29 00:15:25;;;;;;;5.30;1.00;;;8.70;99.90;;;;;;4981799;28;20042;-86
2024/03/29 00:17:51;;;;;;;4.97;1.20;;;8.60;99.90;;;;;;5004241;28;20117;-85
2024/03/29 00:20:17;;;;;;;2.85;1.17;;;8.70;99.90;;;;;;4955338;28;20057;-85
2024/03/29 00:22:42;;;;;;;4.63;1.40;;;8.70;99.90;;;;;;4968110;28;20038;-86
2024/03/29 00:25:09;;;;;;;5.43;1.17;;;8.70;99.90;;;;;;4980303;28;20483;-86
2024/03/29 00:27:36;;;;;;;4.43;1.10;;;8.60;99.90;;;;;;4967840;28;20096;-87
2024/03/29 00:30:02;;;;;;;5.28;1.23;;;8.70;99.90;;;;;;4988719;28;20050;-86
2024/03/29 00:32:27;;;;;;;4.43;1.10;;;8.70;99.90;;;;;;5000268;28;20045;-85
2024/03/29 00:34:54;;;;;;;5.75;1.30;;;8.70;99.90;;;;;;4972015;28;20029;-86
2024/03/29 00:37:20;;;;;;;3.95;1.00;;;8.70;99.90;;;;;;5015010;28;20124;-87
2024/03/29 00:39:46;;;;;;;5.30;1.23;;;8.70;99.90;;;;;;4988837;28;20415;-87
2024/03/29 00:42:15;;;;;;;5.85;1.15;;;8.70;99.90;;;;;;5018078;28;20592;-86
2024/03/29 00:44:44;;;;;;;5.97;1.25;;;8.70;99.90;;;;;;5006976;28;20129;-85
2024/03/29 00:47:10;;;;;;;4.30;1.02;;;8.70;99.90;;;;;;4976793;28;20043;-87
2024/03/29 00:49:36;;;;;;;4.75;1.30;;;8.70;99.90;;;;;;4974003;28;20097;-85
2024/03/29 00:52:03;;;;;;;4.82;1.30;;;8.70;99.90;;;;;;5007083;28;20043;-86
2024/03/29 00:54:29;;;;;;;8.48;1.80;;;8.70;99.90;;;;;;4971542;28;20056;-84
2024/03/29 00:56:55;;;;;;;7.18;1.73;;;8.70;99.90;;;;;;4975997;28;20045;-85
2024/03/29 00:59:21;;;;;;;5.88;1.48;;;8.70;99.90;;;;;;5017349;28;20103;-85
2024/03/29 01:01:47;;;;;;;8.55;1.25;;;8.60;99.90;;;;;;4981571;28;20065;-86
2024/03/29 01:04:13;;;;;;;5.97;1.23;;;8.60;99.90;;;;;;5006826;28;20435;-85
2024/03/29 01:06:40;;;;;;;5.75;1.38;;;8.60;99.90;;;;;;4969861;28;20503;-85
2024/03/29 01:09:06;;;;;;;5.32;1.17;;;8.60;99.90;;;;;;4972583;28;20049;-86
2024/03/29 01:11:32;;;;;;;5.43;1.38;;;8.60;99.90;;;;;;4977297;28;20150;-86
2024/03/29 01:13:58;;;;;;;5.20;1.02;;;8.60;99.90;;;;;;4975389;28;20515;-85
2024/03/29 01:16:24;;;;;;;5.60;1.40;;;8.60;99.90;;;;;;4975596;28;20156;-85
2024/03/29 01:18:51;;;;;;;7.93;1.63;;;8.50;99.90;;;;;;4968698;28;20034;-85
2024/03/29 01:21:18;;;;;;;6.45;1.13;;;8.50;99.90;;;;;;5003678;28;20057;-82
2024/03/29 01:23:44;;;;;;;4.80;1.30;;;8.40;99.90;;;;;;4989318;28;20053;-85
2024/03/29 01:26:12;;;;;;;5.50;1.00;;;8.40;99.90;;;;;;4958335;28;20229;-84
2024/03/29 01:28:44;;;;;;;6.55;1.30;;;8.40;99.90;;;;;;4974634;28;20049;-84
2024/03/29 01:31:10;;;;;;;4.13;1.00;;;8.40;99.90;;;;;;4975290;28;20046;-85
2024/03/29 01:33:40;;;;;;;4.32;1.00;;;8.40;99.90;;;;;;4980590;28;20060;-84
2024/03/29 01:36:06;;;;;;;5.28;1.20;;;8.40;99.90;;;;;;4969745;28;20038;-84
2024/03/29 01:38:32;;;;;;;6.47;1.65;;;8.40;99.90;;;;;;5006685;28;20050;-84
2024/03/29 01:40:57;;;;;;;5.32;1.40;;;8.40;99.90;;;;;;4965481;28;20764;-86
2024/03/29 01:43:24;;;;;;;5.45;1.02;;;8.40;99.90;;;;;;4972650;28;20498;-85
2024/03/29 01:45:52;;;;;;;3.00;0.90;;;8.40;99.90;;;;;;4959239;28;20041;-84
2024/03/29 01:48:20;;;;;;;5.25;1.20;;;8.40;99.90;;;;;;5006922;28;20043;-84
2024/03/29 01:50:48;;;;;;;8.23;1.58;;;8.40;99.90;;;;;;4974875;28;20049;-84
2024/03/29 01:53:15;;;;;;;6.50;1.10;;;8.40;99.90;;;;;;5004011;28;20602;-84
2024/03/29 01:55:41;;;;;;;4.00;1.10;;;8.40;99.90;;;;;;4982843;28;20042;-84
2024/03/29 01:58:09;;;;;;;5.13;1.85;;;8.30;99.90;;;;;;4970190;28;20408;-85
2024/03/29 02:00:38;;;;;;;6.85;1.30;;;8.30;99.90;;;;;;4992992;28;20046;-82
2024/03/29 02:03:09;;;;;;;5.75;1.30;;;8.40;99.90;;;;;;5001181;28;20568;-84
2024/03/29 02:05:36;;;;;;;5.65;1.23;;;8.30;99.90;;;;;;4966874;28;20129;-84
2024/03/29 02:08:04;;;;;;;5.13;1.20;;;8.30;99.90;;;;;;4983494;28;20396;-84
2024/03/29 02:10:29;;;;;;;2.85;1.00;;;8.30;99.90;;;;;;5002126;28;20413;-83
2024/03/29 02:12:55;;;;;;;6.45;1.13;;;8.30;99.90;;;;;;4965929;28;20042;-84
2024/03/29 02:15:21;;;;;;;5.32;1.55;;;8.20;99.90;;;;;;4972706;28;20513;-84
2024/03/29 02:17:47;;;;;;;6.65;1.20;;;8.20;99.90;;;;;;4970249;28;20047;-84
2024/03/29 02:20:13;;;;;;;5.50;1.30;;;8.20;99.90;;;;;;4989911;28;20417;-83
2024/03/29 02:22:46;;;;;;;3.88;1.08;;;8.20;99.90;;;;;;4966536;28;20038;-85
2024/03/29 02:25:12;;;;;;;6.30;1.73;;;8.10;99.90;;;;;;5005834;28;20054;-84
2024/03/29 02:27:38;;;;;;;3.42;1.08;;;8.10;99.90;;;;;;5001976;28;20050;-83
2024/03/29 02:30:05;;;;;;;5.10;0.90;;;8.10;99.90;;;;;;4999990;28;20684;-85
2024/03/29 02:32:31;;;;;;;5.22;1.40;;;8.00;99.90;;;;;;4985347;28;20121;-84
2024/03/29 02:34:56;;;;;;;6.25;1.52;;;8.00;99.90;;;;;;5003664;28;20599;-85
2024/03/29 02:37:22;;;;;;;4.00;1.00;;;8.00;99.90;;;;;;4984123;28;20046;-84
2024/03/29 02:39:48;;;;;;;7.55;1.63;;;8.00;99.90;;;;;;4982200;28;20117;-84
2024/03/29 02:42:17;;;;;;;5.13;1.00;;;8.00;99.90;;;;;;4967800;28;20046;-85
2024/03/29 02:44:43;;;;;;;4.88;1.25;;;8.00;99.90;;;;;;4990830;28;20074;-85
2024/03/29 02:47:08;;;;;;;6.50;1.30;;;8.10;99.90;;;;;;4976882;28;20081;-84
2024/03/29 02:49:34;;;;;;;5.60;1.45;;;8.10;99.90;;;;;;5011366;28;20100;-83
2024/03/29 02:52:00;;;;;;;3.80;1.10;;;8.10;99.90;;;;;;4961759;28;22395;-83
2024/03/29 02:54:25;;;;;;;4.57;1.33;;;8.10;99.90;;;;;;4993392;28;20097;-84
2024/03/29 02:56:51;;;;;;;6.43;1.50;;;8.10;99.90;;;;;;4958426;28;20380;-85
2024/03/29 02:59:17;;;;;;;6.28;1.15;;;8.10;99.90;;;;;;4965070;28;20171;-85
2024/03/29 03:01:43;;;;;;;4.43;1.27;;;8.10;99.90;;;;;;4970757;28;20057;-83
2024/03/29 03:04:08;;;;;;;4.97;1.50;;;8.10;99.90;;;;;;4979390;28;20132;-84
2024/03/29 03:06:34;;;;;;;4.13;1.05;;;8.10;99.90;;;;;;4990982;28;20050;-84
2024/03/29 03:11:44;;;;;;;5.80;1.33;;;8.10;99.90;;;;;;4979364;28;20133;-84
2024/03/29 03:14:10;;;;;;;3.42;1.17;;;8.20;99.90;;;;;;4956471;28;20129;-85
2024/03/29 03:16:36;;;;;;;7.20;1.15;;;8.20;99.90;;;;;;4968032;28;20077;-85
2024/03/29 03:19:01;;;;;;;3.30;0.80;;;8.10;99.90;;;;;;4984561;28;20554;-84
2024/03/29 03:21:28;;;;;;;3.80;0.77;;;8.20;99.90;;;;;;4966845;28;20132;-85
2024/03/29 03:23:54;;;;;;;5.07;1.30;;;8.10;99.90;;;;;;4973507;28;20042;-84
2024/03/29 03:26:20;;;;;;;7.30;1.40;;;8.20;99.90;;;;;;4988565;28;20675;-84
2024/03/29 03:28:45;;;;;;;5.13;1.17;;;8.10;99.90;;;;;;4969542;28;20038;-83
2024/03/29 03:31:11;;;;;;;5.35;1.17;;;8.20;99.90;;;;;;4990349;28;20041;-83
2024/03/29 03:33:37;;;;;;;5.07;1.27;;;8.30;99.90;;;;;;4970643;28;20045;-85
2024/03/29 03:36:03;;;;;;;5.78;1.00;;;8.20;99.90;;;;;;4973566;28;20137;-82
2024/03/29 03:38:30;;;;;;;5.82;1.20;;;8.20;99.90;;;;;;4971740;28;20136;-85
2024/03/29 03:40:56;;;;;;;3.65;0.90;;;8.20;99.90;;;;;;4968029;28;20049;-85
2024/03/29 03:43:22;;;;;;;3.28;1.05;;;8.30;99.90;;;;;;4980042;28;20422;-85
2024/03/29 03:45:47;;;;;;;6.30;1.10;;;8.30;99.90;;;;;;4969438;28;20068;-84
2024/03/29 03:48:14;;;;;;;4.47;1.02;;;8.30;99.90;;;;;;4988877;28;20058;-85
2024/03/29 03:50:41;;;;;;;7.07;1.50;;;8.30;99.90;;;;;;4966259;28;22152;-84
2024/03/29 03:53:07;;;;;;;3.20;1.10;;;8.30;99.90;;;;;;4980526;28;20044;-84
2024/03/29 03:55:40;;;;;;;6.90;1.17;;;8.30;99.90;;;;;;4963742;28;20046;-84
2024/03/29 03:58:05;;;;;;;4.93;0.90;;;8.30;99.90;;;;;;4971234;28;20070;-84
2024/03/29 04:00:31;;;;;;;4.65;1.08;;;8.30;99.90;;;;;;4969377;28;20061;-84
2024/03/29 04:02:57;;;;;;;5.32;1.17;;;8.30;99.90;;;;;;4969443;28;20100;-84
2024/03/29 04:05:24;;;;;;;5.25;1.45;;;8.30;99.90;;;;;;4969776;28;20041;-85
2024/03/29 04:07:50;;;;;;;3.40;0.75;;;8.30;99.90;;;;;;4981263;28;20050;-85
2024/03/29 04:10:16;;;;;;;5.25;1.30;;;8.20;99.90;;;;;;4982864;28;20038;-85
2024/03/29 04:12:42;;;;;;;3.97;1.10;;;8.20;99.90;;;;;;4987508;28;20050;-85
2024/03/29 04:15:10;;;;;;;3.85;1.00;;;8.20;99.90;;;;;;4984746;28;20053;-84
2024/03/29 04:17:36;;;;;;;3.28;0.70;;;8.30;99.90;;;;;;4990247;28;20491;-85
2024/03/29 04:20:02;;;;;;;3.70;1.17;;;8.30;99.90;;;;;;4987095;28;20044;-87
2024/03/29 04:22:28;;;;;;;6.72;1.13;;;8.30;99.90;;;;;;4982652;28;20507;-85
2024/03/29 04:24:54;;;;;;;4.45;1.30;;;8.30;99.90;;;;;;4969531;28;20045;-84
2024/03/29 04:27:20;;;;;;;4.25;1.02;;;8.40;99.90;;;;;;4969730;28;20053;-86
2024/03/29 04:29:45;;;;;;;4.15;1.05;;;8.30;99.90;;;;;;4970285;28;20042;-85
2024/03/29 04:32:11;;;;;;;4.18;1.10;;;8.30;99.90;;;;;;4987197;28;20052;-86
2024/03/29 04:34:40;;;;;;;4.13;1.33;;;8.30;99.90;;;;;;4983672;28;20077;-86
2024/03/29 04:37:05;;;;;;;5.85;1.45;;;8.30;99.90;;;;;;4988451;28;20038;-86
2024/03/29 04:39:31;;;;;;;4.03;0.93;;;8.30;99.90;;;;;;4984547;28;20053;-86
2024/03/29 04:41:58;;;;;;;5.55;1.02;;;8.30;99.90;;;;;;4972218;28;20045;-85
2024/03/29 04:44:25;;;;;;;3.28;0.85;;;8.40;99.90;;;;;;4972182;28;20042;-86
2024/03/29 04:46:52;;;;;;;5.55;1.10;;;8.40;99.90;;;;;;4986641;28;20069;-85
2024/03/29 04:49:30;;;;;;;4.68;1.23;;;8.40;99.90;;;;;;4969250;28;20038;-86
2024/03/29 04:51:57;;;;;;;4.03;1.13;;;8.40;99.90;;;;;;4987184;28;20046;-86
2024/03/29 04:54:23;;;;;;;3.88;1.30;;;8.40;99.90;;;;;;4969054;28;20138;-85
2024/03/29 04:56:48;;;;;;;4.80;1.05;;;8.40;99.90;;;;;;4984856;28;20058;-83
2024/03/29 04:59:17;;;;;;;8.05;1.40;;;8.40;99.90;;;;;;4970043;28;20049;-84
2024/03/29 05:01:50;;;;;;;4.50;1.30;;;8.40;99.90;;;;;;4977694;28;20054;-85
2024/03/29 05:04:25;;;;;;;6.57;1.30;;;8.40;99.90;;;;;;5004545;28;20042;-86
2024/03/29 05:06:55;;;;;;;4.97;1.50;;;8.40;99.90;;;;;;4975766;28;20396;-85
2024/03/29 05:09:21;;;;;;;3.65;1.20;;;8.50;99.90;;;;;;4984764;28;20054;-85
2024/03/29 05:11:47;;;;;;;5.18;1.20;;;8.50;99.90;;;;;;5002757;28;20077;-83
2024/03/29 05:14:20;;;;;;;3.58;1.00;;;8.50;99.90;;;;;;4976826;28;20444;-86
2024/03/29 05:16:47;;;;;;;5.10;1.38;;;8.50;99.90;;;;;;4969898;28;20050;-85
2024/03/29 05:19:14;;;;;;;3.92;0.98;;;8.50;99.90;;;;;;5018470;28;21057;-84
2024/03/29 05:21:41;;;;;;;2.88;0.82;;;8.60;99.90;;;;;;4966795;28;20053;-85
2024/03/29 05:24:07;;;;;;;4.38;1.35;;;8.60;99.90;;;;;;4992283;28;20554;-86
2024/03/29 05:26:34;;;;;;;3.70;1.13;;;8.60;99.90;;;;;;4961009;28;20073;-86
2024/03/29 05:29:00;;;;;;;5.03;1.45;;;8.60;99.90;;;;;;4990979;28;20108;-85
2024/03/29 05:31:29;;;;;;;4.70;1.17;;;8.60;99.90;;;;;;4965131;28;20076;-85
2024/03/29 05:33:55;;;;;;;4.32;1.33;;;8.70;99.90;;;;;;5005115;28;20042;-86
2024/03/29 05:36:21;;;;;;;4.72;0.82;;;8.70;99.90;;;;;;4984808;28;20061;-85
2024/03/29 05:38:46;;;;;;;3.38;1.00;;;8.60;99.90;;;;;;4970390;28;20072;-86
2024/03/29 05:41:12;;;;;;;5.82;1.10;;;8.70;99.90;;;;;;4973354;28;20050;-84
2024/03/29 05:43:41;;;;;;;4.05;1.13;;;8.70;99.90;;;;;;4961638;28;20544;-84
2024/03/29 05:46:07;;;;;;;3.80;0.88;;;8.70;99.90;;;;;;4961682;28;20503;-84
2024/03/29 05:48:35;;;;;;;5.13;1.05;;;8.70;99.90;;;;;;4977976;28;20107;-85
2024/03/29 05:51:01;;;;;;;5.07;1.20;;;8.80;99.90;;;;;;4976432;28;20502;-84
2024/03/29 05:53:26;;;;;;;3.72;1.00;;;8.80;99.90;;;;;;4977881;28;20407;-85
2024/03/29 05:55:52;;;;;;;3.80;0.88;;;8.80;99.90;;;;;;4961761;28;20115;-84
2024/03/29 05:58:20;;;;;;;4.65;0.90;;;8.80;99.90;;;;;;4992527;28;20125;-85
2024/03/29 06:00:46;;;;;;;2.17;0.75;;;8.80;99.90;;;;;;4982447;28;20180;-85
2024/03/29 06:03:12;;;;;;;3.95;0.80;;;8.80;99.90;;;;;;4980019;28;20124;-86
2024/03/29 06:05:41;;;;;;;4.35;0.88;;;8.80;99.90;;;;;;4973616;28;20049;-85
2024/03/29 06:08:10;;;;;;;1.98;0.70;;;8.90;99.90;;;;;;4997589;28;20517;-85
2024/03/29 06:10:36;;;;;;;6.40;1.00;;;8.90;99.90;;;;;;4991273;28;20066;-84
2024/03/29 06:13:07;;;;;;;3.88;1.05;;;8.90;99.90;;;;;;4961477;28;20053;-85
2024/03/29 06:18:21;;;;;;;2.70;0.98;;;8.90;99.90;;;;;;4983908;28;20058;-86
2024/03/29 06:20:48;;;;;;;2.42;0.90;;;8.90;99.90;;;;;;4977454;28;20084;-85
2024/03/29 06:23:14;;;;;;;4.15;0.98;;;8.90;99.90;;;;;;4984621;28;20058;-84
2024/03/29 06:25:40;;;;;;;4.70;0.88;;;9.00;99.90;;;;;;5010957;28;20042;-85
2024/03/29 06:28:06;;;;;;;2.10;0.73;;;9.00;99.90;;;;;;4977438;28;20057;-85
2024/03/29 06:30:31;;;;;;;2.53;0.73;;;9.00;99.90;;;;;;4964201;28;20042;-84
2024/03/29 06:33:02;;;;;;;2.85;0.93;;;9.00;99.90;;;;;;5015804;28;20045;-86
2024/03/29 06:35:28;;;;;;;3.08;0.70;;;9.00;99.90;;;;;;4983048;28;20050;-86
2024/03/29 06:37:54;;;;;;;2.78;0.65;;;9.00;99.90;;;;;;5020977;28;20120;-85
2024/03/29 06:40:20;;;;;;;2.50;0.60;;;9.00;99.90;;;;;;5008564;28;20045;-83
2024/03/29 06:42:45;;;;;;;2.03;0.50;;;9.00;99.90;;;;;;4983328;28;20034;-82
2024/03/29 06:45:11;;;;;;;3.22;0.75;;;9.00;99.90;;;;;;5017366;28;20048;-85
2024/03/29 06:47:39;;;;;;;4.25;0.80;;;9.10;99.90;;;;;;4971861;28;20049;-85
2024/03/29 06:50:05;;;;;;;3.05;0.65;;;9.00;99.90;;;;;;5023770;28;20517;-85
2024/03/29 06:52:31;;;;;;;3.13;0.65;;;9.00;99.90;;;;;;4964582;28;20496;-85
2024/03/29 06:54:57;;;;;;;2.92;0.77;;;9.10;99.90;;;;;;5017531;28;20042;-84
2024/03/29 06:57:25;;;;;;;1.50;0.65;;;9.10;99.90;;;;;;4960384;28;20057;-85
2024/03/29 06:59:51;;;;;;;2.05;0.50;;;9.10;99.90;;;;;;5015170;28;20059;-84
2024/03/29 07:02:17;;;;;;;3.08;0.65;;;9.10;99.90;;;;;;4994770;28;20052;-84
2024/03/29 07:04:46;;;;;;;2.97;0.80;;;9.10;99.90;;;;;;4980410;28;20046;-85
2024/03/29 07:07:12;;;;;;;2.38;0.70;;;9.10;99.90;;;;;;4970962;28;20122;-85
2024/03/29 07:09:40;;;;;;;3.85;0.60;;;9.20;99.90;;;;;;5017574;28;20119;-85
2024/03/29 07:12:06;;;;;;;2.47;0.60;;;9.20;99.90;;;;;;4976841;28;20034;-84
2024/03/29 07:14:33;;;;;;;2.80;0.63;;;9.20;99.90;;;;;;5014853;28;20506;-85
2024/03/29 07:16:59;;;;;;;4.88;1.10;;;9.20;99.90;;;;;;5019248;28;20047;-85
2024/03/29 07:19:28;;;;;;;3.03;0.90;;;9.20;99.90;;;;;;4991382;28;20052;-85
2024/03/29 07:21:54;;;;;;;4.00;0.82;;;9.20;99.90;;;;;;4972310;28;20038;-85
2024/03/29 07:24:20;;;;;;;2.67;0.82;;;9.20;99.90;;;;;;4976416;28;20052;-84
2024/03/29 07:26:46;;;;;;;4.03;0.90;;;9.20;99.90;;;;;;5005892;28;21120;-82
2024/03/29 07:29:11;;;;;;;3.05;0.90;;;9.30;99.90;;;;;;5006410;28;20520;-85
2024/03/29 07:31:37;;;;;;;2.90;0.70;;;9.30;99.90;;;;;;4990002;28;20046;-87
2024/03/29 07:34:03;;;;;;;3.15;0.98;;;9.30;99.90;;;;;;4973219;28;20042;-85
2024/03/29 07:36:35;;;;;;;2.50;0.70;;;9.30;99.90;;;;;;4986249;28;20125;-84
2024/03/29 07:39:01;;;;;;;2.80;0.73;;;9.20;99.90;;;;;;4996129;28;20065;-85
2024/03/29 07:41:27;;;;;;;4.80;0.95;;;9.30;99.90;;;;;;5007596;28;20046;-87
2024/03/29 07:43:56;;;;;;;3.88;0.80;;;9.30;99.90;;;;;;4976250;28;20085;-85
2024/03/29 07:46:23;;;;;;;4.35;1.13;;;9.30;99.90;;;;;;4974341;28;20047;-84
2024/03/29 07:48:51;;;;;;;2.78;0.90;;;9.30;99.90;;;;;;5017207;28;20130;-85
2024/03/29 07:51:17;;;;;;;2.92;0.70;;;9.30;99.90;;;;;;4957717;28;20038;-85
2024/03/29 07:53:43;;;;;;;2.90;0.70;;;9.30;99.90;;;;;;4959683;28;20100;-86
2024/03/29 07:56:09;;;;;;;4.28;1.08;;;9.30;99.90;;;;;;5001667;28;20920;-86
2024/03/29 07:58:35;;;;;;;2.63;0.85;;;9.30;99.90;;;;;;4979291;28;20133;-84
2024/03/29 08:01:04;;;;;;;3.20;0.90;;;9.30;99.90;;;;;;4973253;28;20041;-86
2024/03/29 08:03:32;;;;;;;2.17;0.80;;;9.30;99.90;;;;;;4974706;28;20502;-86
2024/03/29 08:06:04;;;;;;;3.00;0.90;;;9.20;99.90;;;;;;4979719;28;20580;-87
2024/03/29 08:08:30;;;;;;;4.50;1.10;;;9.30;99.90;;;;;;4965267;28;20478;-85
2024/03/29 08:10:56;;;;;;;5.80;1.20;;;9.30;99.90;;;;;;4971904;28;20125;-86
2024/03/29 08:13:24;;;;;;;4.35;1.00;;;9.20;99.90;;;;;;4966329;28;20839;-86
2024/03/29 08:15:57;;;;;;;3.97;1.10;;;9.20;99.90;;;;;;5017277;28;20120;-87
2024/03/29 08:18:24;;;;;;;3.50;1.20;;;9.20;99.90;;;;;;4958841;28;20054;-86
2024/03/29 08:20:49;;;;;;;3.95;1.20;;;9.20;99.90;;;;;;4963544;28;20035;-83
2024/03/29 08:23:15;;;;;;;4.38;1.15;;;9.10;99.90;;;;;;5010585;28;20101;-87
2024/03/29 08:25:41;;;;;;;4.65;1.20;;;9.10;99.90;;;;;;4962905;28;20076;-86
2024/03/29 08:28:07;;;;;;;3.00;1.13;;;9.10;99.90;;;;;;4980391;28;20118;-87
2024/03/29 08:30:36;;;;;;;2.92;1.00;;;9.00;99.90;;;;;;4982546;28;20403;-87
2024/03/29 08:33:02;;;;;;;1.92;1.08;;;9.00;99.90;;;;;;4974938;28;20042;-89
2024/03/29 08:35:29;;;;;;;3.40;1.25;;;9.10;99.90;;;;;;4975695;28;20050;-86
2024/03/29 08:37:55;;;;;;;2.45;1.05;;;9.10;99.90;;;;;;4991977;28;21334;-87
2024/03/29 08:40:21;;;;;;;3.13;1.20;;;9.10;99.90;;;;;;4989335;28;20530;-88
2024/03/29 08:42:48;;;;;;;1.40;0.80;;;9.20;99.90;;;;;;4971270;28;20045;-87
2024/03/29 08:45:14;;;;;;;3.28;1.23;;;9.20;99.90;;;;;;4971616;28;20038;-86
2024/03/29 08:47:39;;;;;;;5.57;1.77;;;9.30;99.90;;;;;;5003495;28;20493;-85
2024/03/29 08:50:05;;;;;;;3.42;1.30;;;9.30;99.90;;;;;;4977565;28;20045;-85
2024/03/29 08:52:31;;;;;;;4.15;1.45;;;9.20;99.90;;;;;;4976898;28;20046;-86
2024/03/29 08:54:57;;;;;;;5.82;1.48;;;9.30;99.90;;;;;;4987251;28;20034;-86
2024/03/29 08:57:23;;;;;;;3.75;1.67;;;9.20;99.90;;;;;;4988128;28;20054;-85
2024/03/29 08:59:48;;;;;;;2.30;1.15;;;9.20;99.90;;;;;;4988385;28;20061;-85
2024/03/29 09:02:14;;;;;;;3.88;1.50;;;9.20;99.90;;;;;;4974636;28;20045;-86
2024/03/29 09:04:40;;;;;;;2.92;1.33;;;9.30;99.90;;;;;;4973287;28;20056;-86
2024/03/29 09:07:06;;;;;;;5.18;1.70;;;9.40;99.90;;;;;;4971869;28;20034;-84
2024/03/29 09:09:32;;;;;;;2.75;1.38;;;9.50;99.90;;;;;;4984093;28;20044;-86
2024/03/29 09:11:58;;;;;;;3.13;1.77;;;9.50;99.90;;;;;;4971194;28;20046;-86
2024/03/29 09:14:24;;;;;;;3.38;1.33;;;9.50;99.90;;;;;;5024163;28;20041;-85
2024/03/29 09:16:50;;;;;;;3.85;1.60;;;9.60;99.90;;;;;;4969879;28;20076;-85
2024/03/29 09:19:17;;;;;;;3.20;1.42;;;9.50;99.90;;;;;;5016160;28;20049;-86
2024/03/29 09:21:42;;;;;;;4.07;1.70;;;9.60;99.90;;;;;;4969937;28;20112;-85
2024/03/29 09:24:08;;;;;;;3.08;1.30;;;9.70;99.90;;;;;;4985071;28;20068;-86
2024/03/29 09:26:34;;;;;;;1.95;1.08;;;9.80;99.90;;;;;;4971750;28;20050;-88
2024/03/29 09:29:00;;;;;;;3.58;1.38;;;9.80;99.90;;;;;;4986353;28;20105;-85
2024/03/29 09:31:27;;;;;;;3.05;1.30;;;9.90;99.90;;;;;;4987567;28;20042;-86
2024/03/29 09:33:57;;;;;;;2.53;1.00;;;9.90;99.90;;;;;;4989054;28;20050;-87
2024/03/29 09:36:23;;;;;;;4.15;1.08;;;9.90;99.90;;;;;;4986986;28;20583;-86
2024/03/29 09:38:52;;;;;;;2.38;1.00;;;9.90;99.90;;;;;;4992354;28;20073;-84
2024/03/29 09:41:19;;;;;;;2.35;1.02;;;9.90;99.90;;;;;;4989428;28;20130;-86
2024/03/29 09:43:46;;;;;;;3.15;1.10;;;10.00;99.90;;;;;;4973403;28;20049;-87
2024/03/29 09:46:13;;;;;;;1.55;0.90;;;10.00;99.90;;;;;;5004038;28;20345;-86
2024/03/29 09:48:46;;;;;;;2.28;1.10;;;10.00;99.90;;;;;;4973075;28;20546;-87
2024/03/29 09:51:15;;;;;;;3.17;1.40;;;10.00;99.90;;;;;;4973504;28;20044;-88
2024/03/29 09:53:43;;;;;;;3.10;1.50;;;10.10;99.90;;;;;;4970089;28;20049;-86
2024/03/29 09:56:10;;;;;;;4.43;1.60;;;10.20;99.90;;;;;;4985612;28;20053;-87
2024/03/29 09:58:39;;;;;;;4.07;1.40;;;10.20;99.90;;;;;;4973382;28;20052;-85
2024/03/29 10:01:05;;;;;;;3.63;1.50;;;10.50;99.90;;;;;;4980628;28;20471;-85
2024/03/29 10:03:36;;;;;;;4.38;1.85;;;10.60;99.90;;;;;;4987976;28;20129;-85
2024/03/29 10:06:02;;;;;;;;;;;10.80;99.90;;;;;;4985764;28;20056;-83
2024/03/29 10:08:30;;;;;;;3.22;1.63;;;10.90;99.90;;;;;;4971410;28;20360;-85
2024/03/29 10:10:59;;;;;;;2.75;1.42;;;11.00;99.90;;;;;;4973124;28;20045;-85
2024/03/29 10:13:25;;;;;;;2.55;1.27;;;11.10;99.90;;;;;;4966256;28;20045;-84
2024/03/29 10:15:56;;;;;;;3.03;1.35;;;11.20;99.90;;;;;;4988105;28;20096;-84
2024/03/29 10:18:27;;;;;;;1.98;1.33;;;11.40;99.90;;;;;;4967267;28;20041;-84
2024/03/29 10:21:09;;;;;;;4.18;1.42;;;11.60;99.90;;;;;;4987004;28;20097;-84
2024/03/29 10:23:36;;;;;;;2.90;1.00;;;11.60;99.90;;;;;;4968555;28;20050;-84
2024/03/29 10:26:02;;;;;;;3.00;0.95;;;11.80;99.90;;;;;;4971497;28;20046;-84
2024/03/29 10:28:34;;;;;;;3.40;0.85;;;11.80;99.90;;;;;;4981594;28;20714;-85
2024/03/29 10:31:04;;;;;;;2.25;0.88;;;12.00;99.90;;;;;;4985178;28;20046;-84
2024/03/29 10:33:31;;;;;;;3.03;0.95;;;12.20;99.90;;;;;;4979762;28;20069;-83
2024/03/29 10:35:59;;;;;;;2.58;0.77;;;12.40;99.90;;;;;;4982013;28;20491;-84
2024/03/29 10:38:26;;;;;;;3.60;1.10;;;12.50;99.90;;;;;;4969025;28;20048;-84
2024/03/29 10:40:55;;;;;;;2.40;0.90;;;12.50;99.90;;;;;;4968290;28;20061;-84
2024/03/29 10:43:21;;;;;;;1.90;0.77;;;12.50;99.90;;;;;;4967372;28;20149;-83
2024/03/29 10:45:50;;;;;;;3.17;1.00;;;12.50;99.90;;;;;;4971174;28;20050;-84
2024/03/29 10:48:17;;;;;;;3.35;1.30;;;12.60;99.90;;;;;;5014405;28;20046;-84
2024/03/29 10:50:47;;;;;;;3.72;1.20;;;12.80;99.90;;;;;;4986141;28;20047;-84
2024/03/29 10:53:14;;;;;;;;;;;12.70;99.90;;;;;;4971211;28;20042;-84
2024/03/29 10:55:43;;;;;;;2.35;1.20;;;12.70;99.90;;;;;;5000190;28;20450;-83
2024/03/29 10:58:11;;;;;;;3.00;1.50;;;12.90;99.90;;;;;;4968844;28;20049;-84
2024/03/29 11:00:46;;;;;;;2.47;1.52;;;13.00;99.90;;;;;;4985314;28;20116;-84
2024/03/29 11:03:30;;;;;;;4.90;1.75;;;12.90;99.90;;;;;;4970447;28;20686;-84
2024/03/29 11:06:04;;;;;;;3.72;1.67;;;12.90;99.90;;;;;;4970511;28;20157;-85
2024/03/29 11:08:34;;;;;;;3.65;1.88;;;12.80;99.90;;;;;;4983686;28;20040;-83
2024/03/29 11:11:03;;;;;;;5.53;2.25;;;12.70;99.90;;;;;;4973387;28;20042;-84
2024/03/29 11:13:52;;;;;;;3.57;2.20;;;12.70;99.90;;;;;;4984522;28;20371;-83
2024/03/29 11:16:19;;;;;;;6.97;2.75;;;12.70;99.90;;;;;;4970258;28;20053;-84
2024/03/29 11:18:47;;;;;;;6.25;3.05;;;12.70;99.90;;;;;;4997476;28;20041;-86
2024/03/29 11:21:18;;;;;;;5.75;3.40;;;12.60;99.90;;;;;;4966011;28;20709;-86
2024/03/29 11:23:52;;;;;;;5.90;3.20;;;12.60;99.90;;;;;;4962834;28;20511;-86
2024/03/29 11:26:19;;;;;;;4.97;3.25;;;12.60;99.90;;;;;;4964832;28;20038;-86
2024/03/29 11:28:49;;;;;;;4.55;3.70;;;12.60;99.90;;;;;;4982417;28;20148;-87
2024/03/29 11:31:16;;;;;;;5.28;3.75;;;12.60;99.90;;;;;;4917262;28;1245266;-82
2024/03/29 11:33:44;;;;;;;5.30;4.00;;;12.60;99.90;;;;;;4994732;28;20046;-86
2024/03/29 11:36:19;;;;;;;5.40;4.20;;;12.50;99.90;;;;;;4998886;28;20141;-85
2024/03/29 11:38:49;;;;;;;6.13;3.97;;;12.50;99.90;;;;;;4994275;28;20432;-86
2024/03/29 11:41:26;;;;;;;5.75;4.40;;;12.50;99.90;;;;;;4962203;28;20048;-85
2024/03/29 11:43:54;;;;;;;5.30;4.55;;;12.60;99.90;;;;;;4979597;28;20054;-86
2024/03/29 11:46:20;;;;;;;7.20;5.15;;;12.80;99.90;;;;;;4971988;28;20041;-85
2024/03/29 11:48:49;;;;;;;6.65;5.10;;;12.80;99.90;;;;;;5012864;28;20090;-86
2024/03/29 11:51:18;;;;;;;7.45;4.90;;;12.90;99.90;;;;;;4971442;28;20052;-84
2024/03/29 11:53:44;;;;;;;6.10;5.50;;;13.00;99.90;;;;;;5004304;28;20046;-84
2024/03/29 11:56:13;;;;;;;7.15;5.60;;;13.00;99.90;;;;;;5001095;28;20057;-85
2024/03/29 11:58:40;;;;;;;6.80;4.85;;;12.90;99.90;;;;;;4971027;28;20101;-86
2024/03/29 12:01:10;;;;;;;5.32;4.65;;;13.00;99.90;;;;;;4977435;28;20041;-82
2024/03/29 12:03:40;;;;;;;5.55;3.60;;;13.10;99.90;;;;;;4966444;28;20883;-85
2024/03/29 12:06:05;;;;;;;5.78;4.10;;;13.20;99.90;;;;;;4971180;28;20100;-85
2024/03/29 12:08:34;;;;;;;6.22;4.25;;;13.30;99.90;;;;;;5003903;28;20086;-84
2024/03/29 12:11:02;;;;;;;5.32;3.80;;;13.50;99.90;;;;;;4986243;28;20050;-84
2024/03/29 12:13:28;;;;;;;5.80;4.10;;;13.50;99.90;;;;;;4976265;28;20128;-83
2024/03/29 12:15:55;;;;;;;4.97;4.00;;;13.60;99.90;;;;;;4970139;28;20050;-83
2024/03/29 12:18:21;;;;;;;4.78;4.28;;;13.50;99.90;;;;;;4984007;28;20041;-83
2024/03/29 12:20:51;;;;;;;5.93;4.50;;;13.30;99.90;;;;;;4986657;28;20042;-83
2024/03/29 12:23:21;;;;;;;4.68;4.18;;;13.30;99.90;;;;;;4970046;28;20048;-79
2024/03/29 12:25:49;;;;;;;5.85;3.80;;;13.30;99.90;;;;;;4973958;28;20038;-80
2024/03/29 12:28:15;;;;;;;4.65;3.80;;;13.30;99.90;;;;;;4989351;28;20081;-82
2024/03/29 12:30:46;;;;;;;3.80;3.40;;;13.30;99.90;;;;;;4968061;28;20056;-83
2024/03/29 12:33:19;;;;;;;3.97;3.10;;;13.20;99.90;;;;;;4989956;28;20562;-82
2024/03/29 12:35:50;;;;;;;3.20;2.10;;;13.30;99.90;;;;;;4988541;28;20042;-84
2024/03/29 12:38:17;;;;;;;2.80;2.03;;;13.40;99.90;;;;;;4975814;28;20100;-83
2024/03/29 12:40:44;;;;;;;4.93;2.22;;;13.40;99.90;;;;;;4972416;28;20049;-84
2024/03/29 12:43:11;;;;;;;3.47;2.10;;;13.40;99.90;;;;;;4985766;28;20054;-85
2024/03/29 12:45:39;;;;;;;3.83;1.98;;;13.40;99.90;;;;;;4988350;28;20052;-84
2024/03/29 12:48:16;;;;;;;4.75;2.38;;;13.50;99.90;;;;;;4974943;28;20544;-83
2024/03/29 12:50:44;;;;;;;4.28;1.30;;;13.60;99.90;;;;;;4973699;28;20041;-83
2024/03/29 12:53:12;;;;;;;3.70;1.40;;;13.80;99.90;;;;;;4987366;28;20045;-83
2024/03/29 12:55:41;;;;;;;2.80;1.33;;;13.90;99.90;;;;;;5016841;28;20128;-84
2024/03/29 12:58:15;;;;;;;2.42;1.10;;;14.00;99.90;;;;;;4987474;28;20046;-84
2024/03/29 13:00:41;;;;;;;4.32;1.58;;;14.00;99.90;;;;;;4972033;28;20073;-83